Terminal Aerodrome Forecast
Issued by NWS Jackson, KY

Home | Current Version | Previous Version | Text Only | Print | Product List | Glossary On
Versions: 1 2 3 4 5 6 7 8 9 10 11 12 13 14 15 16 17 18 19 20 21
629
FTUS43 KJKL 231638 AAB
TAFJKL
TAF AMD
KJKL 231638Z 2317/2412 VRB03KT 1SM SHRA BR OVC002
     FM231800 07006KT 5SM -SHRA OVC010
     FM240000 11005KT 5SM -SHRA OVC025
     FM240300 07005KT P6SM VCSH OVC015
     FM240600 VRB03KT P6SM OVC008=

USA.gov is the U.S. government's official web portal to all federal, state and local government web resources and services.